Time;durP1;ratioP1;P1;durP2;ratioP2;P2;SDS_P1;SDS_P2;PMS_P1;PMS_P2;Temp;Humidity;BMP_temperature;BMP_pressure;BME280_temperature;BME280_humidity;BME280_pressure;Samples;Min_cycle;Max_cycle;Signal;HPM_P1;HPM_P2
2022/07/29 00:01:30;;;;;;;8.25;4.63;;;23.40;99.90;;;;;;5052928;28;20055;-71
2022/07/29 00:04:36;;;;;;;7.78;5.10;;;23.20;99.90;;;;;;5052620;28;20486;-70
2022/07/29 00:07:40;;;;;;;5.95;4.32;;;23.20;99.90;;;;;;5052825;28;20075;-70
2022/07/29 00:10:45;;;;;;;7.90;5.13;;;23.10;99.90;;;;;;5052807;28;20399;-70
2022/07/29 00:13:49;;;;;;;8.32;4.80;;;23.10;99.90;;;;;;5052304;28;20048;-70
2022/07/29 00:16:53;;;;;;;8.15;4.53;;;23.00;99.90;;;;;;5052608;28;20391;-71
2022/07/29 00:19:57;;;;;;;6.85;4.70;;;22.90;99.90;;;;;;5052609;28;20044;-70
2022/07/29 00:23:01;;;;;;;7.32;5.13;;;22.90;99.90;;;;;;5039796;28;20048;-70
2022/07/29 00:26:05;;;;;;;9.85;5.22;;;22.90;99.90;;;;;;5052540;28;20044;-70
2022/07/29 00:29:09;;;;;;;11.65;5.25;;;22.90;99.90;;;;;;5052552;28;20056;-70
2022/07/29 00:32:13;;;;;;;9.32;5.53;;;22.90;99.90;;;;;;5051899;28;20064;-70
2022/07/29 00:38:44;;;;;;;9.32;6.13;;;22.80;99.90;;;;;;5052626;28;20047;-70
2022/07/29 00:41:48;;;;;;;7.43;4.88;;;22.80;99.90;;;;;;5052291;28;20047;-70
2022/07/29 00:44:52;;;;;;;9.73;5.65;;;22.80;99.90;;;;;;5052180;28;20407;-71
2022/07/29 00:47:56;;;;;;;10.07;6.03;;;22.90;99.90;;;;;;5051878;28;20064;-70
2022/07/29 00:51:02;;;;;;;11.18;6.40;;;22.80;99.90;;;;;;5052140;28;20052;-70
2022/07/29 00:54:07;;;;;;;9.18;5.68;;;22.80;99.90;;;;;;5051579;28;20052;-70
2022/07/29 00:57:12;;;;;;;8.75;5.63;;;22.70;99.90;;;;;;5052046;28;20040;-70
2022/07/29 01:00:20;;;;;;;8.18;5.50;;;22.70;99.90;;;;;;5051684;28;20048;-71
2022/07/29 01:03:23;;;;;;;9.82;6.32;;;22.60;99.90;;;;;;5051771;28;20068;-70
2022/07/29 01:06:27;;;;;;;13.77;6.18;;;22.60;99.90;;;;;;5051387;28;20036;-71
2022/07/29 01:09:33;;;;;;;11.68;6.15;;;22.60;99.90;;;;;;5039523;28;20391;-70
2022/07/29 01:12:38;;;;;;;8.98;6.55;;;22.60;99.90;;;;;;5051904;28;20396;-71
2022/07/29 01:15:47;;;;;;;10.93;6.53;;;22.50;99.90;;;;;;5051018;28;20494;-70
2022/07/29 01:19:00;;;;;;;9.18;6.53;;;22.50;99.90;;;;;;5051581;28;20055;-70
2022/07/29 01:22:16;;;;;;;13.18;6.57;;;22.50;99.90;;;;;;5051499;28;20048;-71
2022/07/29 01:25:48;;;;;;;13.52;6.32;;;22.30;99.90;;;;;;5051195;28;20040;-71
2022/07/29 01:29:07;;;;;;;11.25;6.72;;;22.30;99.90;;;;;;5051618;28;20064;-71
2022/07/29 01:32:15;;;;;;;13.68;7.00;;;22.40;99.90;;;;;;5051033;28;20040;-71
2022/07/29 01:35:47;;;;;;;10.95;6.45;;;22.40;99.90;;;;;;5051287;28;20064;-71
2022/07/29 01:38:59;;;;;;;;;;;22.40;99.90;;;;;;5051736;28;20055;-70
2022/07/29 01:42:06;;;;;;;11.23;6.13;;;22.40;99.90;;;;;;5050966;28;19908;-71
2022/07/29 01:45:32;;;;;;;9.40;5.97;;;22.50;99.90;;;;;;5050555;28;20396;-71
2022/07/29 01:48:48;;;;;;;9.82;6.25;;;22.40;99.90;;;;;;5051284;28;20116;-71
2022/07/29 01:51:54;;;;;;;9.52;5.75;;;22.40;99.90;;;;;;5051253;28;20462;-71
2022/07/29 01:55:02;;;;;;;11.75;6.20;;;22.40;99.90;;;;;;5050625;28;20396;-71
2022/07/29 01:58:07;;;;;;;10.02;6.18;;;22.30;99.90;;;;;;5037833;28;20040;-71
2022/07/29 02:01:13;;;;;;;10.52;6.32;;;22.30;99.90;;;;;;5050874;28;20099;-71
2022/07/29 02:04:18;;;;;;;21.17;6.85;;;22.30;99.90;;;;;;5049676;28;20056;-71
2022/07/29 02:07:24;;;;;;;12.30;6.88;;;22.20;99.90;;;;;;5050557;28;20056;-70
2022/07/29 02:10:31;;;;;;;8.45;6.25;;;22.10;99.90;;;;;;5050717;28;20052;-70
2022/07/29 02:13:37;;;;;;;10.05;6.32;;;22.00;99.90;;;;;;5050295;28;20427;-71
2022/07/29 02:16:41;;;;;;;13.32;6.53;;;21.90;99.90;;;;;;5050380;28;20048;-71
2022/07/29 02:19:47;;;;;;;11.27;6.93;;;21.90;99.90;;;;;;5050679;28;20040;-71
2022/07/29 02:22:53;;;;;;;9.63;6.60;;;21.80;99.90;;;;;;5050448;28;20036;-71
2022/07/29 02:25:59;;;;;;;14.25;6.85;;;21.80;99.90;;;;;;5050715;28;20283;-71
2022/07/29 02:29:03;;;;;;;9.93;6.50;;;21.80;99.90;;;;;;5050409;28;20044;-71
2022/07/29 02:32:10;;;;;;;10.38;6.50;;;21.70;99.90;;;;;;5050045;28;20387;-70
2022/07/29 02:35:15;;;;;;;11.20;7.07;;;21.70;99.90;;;;;;5050316;28;20056;-71
2022/07/29 02:41:55;;;;;;;9.63;6.63;;;21.70;99.90;;;;;;5050024;28;20040;-70
2022/07/29 02:44:59;;;;;;;13.88;7.60;;;21.70;99.90;;;;;;5049885;28;20060;-71
2022/07/29 02:48:10;;;;;;;10.70;7.38;;;21.70;99.90;;;;;;5050226;28;20396;-71
2022/07/29 02:51:28;;;;;;;10.68;6.80;;;21.70;99.90;;;;;;5050389;28;20075;-71
2022/07/29 02:54:46;;;;;;;10.48;6.88;;;21.70;99.90;;;;;;5049830;28;20036;-70
2022/07/29 02:57:59;;;;;;;9.90;6.53;;;21.80;99.90;;;;;;5050116;28;20044;-71
2022/07/29 03:01:08;;;;;;;12.65;6.40;;;21.80;99.90;;;;;;5049973;28;20502;-70
2022/07/29 03:04:14;;;;;;;9.82;6.07;;;21.70;99.90;;;;;;5049826;28;20048;-70
2022/07/29 03:07:19;;;;;;;12.68;6.40;;;21.80;99.90;;;;;;5049836;28;20388;-70
2022/07/29 03:10:26;;;;;;;12.45;7.57;;;21.70;99.90;;;;;;5049950;28;20052;-70
2022/07/29 03:13:30;;;;;;;8.70;6.65;;;21.60;99.90;;;;;;5049554;28;20052;-71
2022/07/29 03:16:36;;;;;;;8.48;5.88;;;21.60;99.90;;;;;;5050029;28;20052;-71
2022/07/29 03:19:41;;;;;;;10.23;6.45;;;21.60;99.90;;;;;;5050150;28;20048;-71
2022/07/29 03:22:48;;;;;;;7.50;6.53;;;21.50;99.90;;;;;;5049974;28;20491;-70
2022/07/29 03:25:52;;;;;;;10.57;6.20;;;21.50;99.90;;;;;;5050338;28;20051;-70
2022/07/29 03:28:56;;;;;;;12.10;7.00;;;21.50;99.90;;;;;;5049856;28;20051;-71
2022/07/29 03:32:02;;;;;;;10.23;7.03;;;21.50;99.90;;;;;;5049453;28;20044;-71
2022/07/29 03:35:08;;;;;;;13.88;7.47;;;21.50;99.90;;;;;;5049400;28;20048;-71
2022/07/29 03:38:12;;;;;;;9.93;7.35;;;21.40;99.90;;;;;;5051510;28;20040;-70
2022/07/29 03:41:18;;;;;;;17.23;7.82;;;21.30;99.90;;;;;;5053239;28;20064;-70
2022/07/29 03:44:23;;;;;;;11.88;7.30;;;21.20;99.90;;;;;;5052912;28;20044;-71
2022/07/29 03:47:29;;;;;;;18.25;7.28;;;21.10;99.90;;;;;;5053459;28;20392;-71
2022/07/29 03:50:34;;;;;;;13.85;6.65;;;21.10;99.90;;;;;;5053436;28;20051;-71
2022/07/29 03:53:38;;;;;;;11.20;6.90;;;21.10;99.90;;;;;;5052904;28;20051;-71
2022/07/29 03:56:47;;;;;;;10.07;6.70;;;21.10;99.90;;;;;;5053545;28;20048;-70
2022/07/29 03:59:52;;;;;;;12.27;6.57;;;21.10;99.90;;;;;;5053039;28;20048;-70
2022/07/29 04:02:56;;;;;;;9.07;6.55;;;21.00;99.90;;;;;;5040740;28;20040;-70
2022/07/29 04:06:07;;;;;;;12.05;7.43;;;21.00;99.90;;;;;;5053174;28;20052;-70
2022/07/29 04:09:12;;;;;;;17.13;8.57;;;21.00;99.90;;;;;;5052881;28;20071;-70
2022/07/29 04:12:16;;;;;;;11.52;7.43;;;21.00;99.90;;;;;;5052912;28;20387;-70
2022/07/29 04:15:20;;;;;;;11.68;7.88;;;21.00;99.90;;;;;;5052390;28;20503;-70
2022/07/29 04:18:24;;;;;;;8.63;6.45;;;21.20;99.90;;;;;;5052063;28;20047;-71
2022/07/29 04:21:28;;;;;;;9.05;5.80;;;21.30;99.90;;;;;;5053305;28;20048;-70
2022/07/29 04:24:32;;;;;;;9.90;6.47;;;21.40;99.90;;;;;;5052561;28;20048;-70
2022/07/29 04:27:59;;;;;;;8.27;5.85;;;21.60;99.90;;;;;;5053096;28;20052;-71
2022/07/29 04:31:00;;;;;;;11.68;6.68;;;21.70;99.90;;;;;;5052871;28;20056;-70
2022/07/29 04:34:04;;;;;;;13.52;6.40;;;21.30;99.90;;;;;;5052229;28;20040;-70
2022/07/29 04:37:08;;;;;;;11.32;6.90;;;21.20;99.90;;;;;;5052957;28;20494;-70
2022/07/29 04:40:12;;;;;;;11.27;6.88;;;21.20;99.90;;;;;;5052266;28;20040;-70
2022/07/29 04:43:16;;;;;;;8.90;6.18;;;21.20;99.90;;;;;;5052383;28;20040;-70
2022/07/29 04:46:20;;;;;;;8.00;6.00;;;21.10;99.90;;;;;;5052712;28;20048;-70
2022/07/29 04:49:25;;;;;;;10.48;6.53;;;21.00;99.90;;;;;;5051554;28;20052;-70
2022/07/29 04:52:28;;;;;;;13.27;6.97;;;20.90;99.90;;;;;;5052808;28;20052;-70
2022/07/29 04:55:33;;;;;;;11.60;6.28;;;21.10;99.90;;;;;;5051845;28;20051;-71
2022/07/29 04:58:37;;;;;;;9.40;6.70;;;22.80;99.90;;;;;;5052618;28;20044;-70
2022/07/29 05:01:41;;;;;;;11.32;6.53;;;25.10;99.90;;;;;;5052499;28;20095;-70
2022/07/29 05:04:45;;;;;;;9.88;5.60;;;26.30;99.90;;;;;;5051472;28;20265;-70
2022/07/29 05:07:49;;;;;;;7.90;6.07;;;27.50;99.90;;;;;;5052463;28;20072;-70
2022/07/29 05:10:53;;;;;;;13.45;5.65;;;27.90;99.90;;;;;;5052155;28;20040;-71
2022/07/29 05:13:57;;;;;;;10.45;5.97;;;28.40;99.90;;;;;;5051493;28;20040;-70
2022/07/29 05:17:01;;;;;;;11.32;6.30;;;28.50;99.90;;;;;;5052502;28;20040;-70
2022/07/29 05:20:05;;;;;;;8.10;5.80;;;28.20;99.90;;;;;;5052208;28;20055;-70
2022/07/29 05:23:12;;;;;;;12.43;5.38;;;29.30;99.90;;;;;;5052350;28;20051;-70
2022/07/29 05:26:16;;;;;;;8.45;5.32;;;29.40;99.90;;;;;;5052191;28;20036;-70
2022/07/29 05:29:20;;;;;;;8.65;5.40;;;29.30;99.90;;;;;;5051827;28;20036;-70
2022/07/29 05:32:24;;;;;;;9.25;6.30;;;29.60;99.90;;;;;;5051829;28;20040;-70
2022/07/29 05:35:28;;;;;;;8.90;6.00;;;30.10;99.90;;;;;;5050678;28;20036;-70
2022/07/29 05:38:33;;;;;;;13.52;5.80;;;30.90;99.90;;;;;;5051516;28;20055;-70
2022/07/29 05:41:37;;;;;;;10.88;5.97;;;31.80;99.90;;;;;;5051404;28;20411;-70
2022/07/29 05:44:41;;;;;;;7.47;5.80;;;32.00;99.90;;;;;;5051058;28;20231;-71
2022/07/29 05:47:45;;;;;;;9.98;5.82;;;31.70;99.90;;;;;;5050975;28;20048;-70
2022/07/29 05:50:49;;;;;;;11.13;6.07;;;31.80;99.90;;;;;;5050463;28;20040;-70
2022/07/29 05:53:53;;;;;;;8.50;5.20;;;31.30;99.90;;;;;;5050493;28;20048;-70
2022/07/29 05:56:57;;;;;;;9.40;5.57;;;31.80;99.70;;;;;;5050844;28;20064;-71
2022/07/29 06:00:01;;;;;;;10.63;5.80;;;32.30;99.00;;;;;;5050087;28;20035;-71
2022/07/29 06:03:05;;;;;;;7.38;5.57;;;31.50;99.40;;;;;;5050968;28;20048;-71
2022/07/29 06:06:09;;;;;;;15.02;5.90;;;31.60;98.80;;;;;;5054755;28;20047;-71
2022/07/29 06:09:13;;;;;;;8.80;5.40;;;30.60;99.90;;;;;;5070258;28;20048;-70
2022/07/29 06:12:19;;;;;;;16.08;6.03;;;30.00;99.90;;;;;;5066406;28;20493;-70
2022/07/29 06:15:23;;;;;;;9.77;5.32;;;29.30;99.90;;;;;;5069468;28;20047;-71
2022/07/29 06:18:27;;;;;;;8.25;5.40;;;30.60;99.90;;;;;;5070231;28;20044;-70
2022/07/29 06:21:31;;;;;;;9.30;5.15;;;30.70;99.90;;;;;;5069189;28;20040;-70
2022/07/29 06:24:37;;;;;;;8.05;5.00;;;31.80;99.00;;;;;;5069545;28;20051;-71
2022/07/29 06:27:41;;;;;;;8.80;5.20;;;32.40;97.60;;;;;;5070162;28;20043;-71
2022/07/29 06:30:45;;;;;;;9.10;4.97;;;32.90;97.00;;;;;;5070311;28;20055;-71
2022/07/29 06:33:49;;;;;;;10.15;4.60;;;33.80;95.80;;;;;;5069640;28;20111;-71
2022/07/29 06:36:53;;;;;;;8.00;4.93;;;34.60;94.50;;;;;;5070210;28;20052;-71
2022/07/29 06:43:19;;;;;;;7.75;4.90;;;33.70;93.50;;;;;;5069813;28;20044;-72
2022/07/29 06:46:23;;;;;;;8.30;4.20;;;34.00;93.30;;;;;;5070542;28;20043;-71
2022/07/29 06:49:27;;;;;;;6.82;4.10;;;34.80;92.50;;;;;;5069285;28;20103;-72
2022/07/29 06:52:31;;;;;;;8.40;4.40;;;34.80;92.00;;;;;;5073054;28;20501;-71
2022/07/29 06:55:36;;;;;;;9.80;4.90;;;35.00;91.20;;;;;;5083541;28;20043;-72
2022/07/29 06:58:40;;;;;;;8.25;4.43;;;34.60;91.40;;;;;;5081222;28;20043;-71
2022/07/29 07:01:45;;;;;;;5.28;3.92;;;35.10;90.90;;;;;;5079773;28;20055;-72
2022/07/29 07:04:49;;;;;;;4.80;3.97;;;35.30;90.20;;;;;;5083883;28;20059;-72
2022/07/29 07:07:53;;;;;;;6.57;4.07;;;35.50;90.30;;;;;;5075363;28;20040;-71
2022/07/29 07:10:57;;;;;;;6.07;4.10;;;36.00;89.10;;;;;;5072542;28;20048;-72
2022/07/29 07:14:02;;;;;;;7.97;4.10;;;36.00;89.60;;;;;;5080038;28;20051;-71
2022/07/29 07:17:06;;;;;;;10.75;3.97;;;34.10;90.20;;;;;;5071969;28;20043;-72
2022/07/29 07:20:10;;;;;;;7.95;3.85;;;35.00;91.00;;;;;;5075599;28;20055;-72
2022/07/29 07:23:14;;;;;;;8.27;3.90;;;36.30;89.80;;;;;;5062278;28;20059;-71
2022/07/29 07:26:18;;;;;;;5.22;3.80;;;35.20;89.90;;;;;;5076508;28;20051;-72
2022/07/29 07:29:23;;;;;;;9.23;3.83;;;34.90;90.30;;;;;;5062157;28;20047;-71
2022/07/29 07:32:27;;;;;;;9.75;4.15;;;36.20;88.70;;;;;;5060876;28;20067;-71
2022/07/29 07:35:32;;;;;;;6.85;3.80;;;34.80;89.70;;;;;;5042841;28;20080;-71
2022/07/29 07:38:35;;;;;;;7.57;3.60;;;36.20;88.90;;;;;;5073817;28;20099;-72
2022/07/29 07:41:40;;;;;;;5.68;3.65;;;37.10;86.70;;;;;;5061468;28;20051;-72
2022/07/29 07:44:45;;;;;;;13.35;3.70;;;38.00;85.60;;;;;;5073484;28;20403;-73
2022/07/29 07:47:49;;;;;;;13.73;3.65;;;39.10;81.90;;;;;;5073414;28;20059;-71
2022/07/29 07:50:53;;;;;;;8.82;3.97;;;38.90;80.20;;;;;;5073277;28;20490;-69
2022/07/29 07:53:57;;;;;;;4.25;3.00;;;37.70;80.60;;;;;;5073422;28;20061;-72
2022/07/29 07:57:01;;;;;;;14.82;4.55;;;39.10;79.60;;;;;;5065431;28;20051;-72
2022/07/29 08:00:06;;;;;;;7.65;3.53;;;38.40;78.90;;;;;;5082808;28;20042;-71
2022/07/29 08:03:16;;;;;;;7.15;3.35;;;37.70;79.80;;;;;;5083027;28;20106;-71
2022/07/29 08:06:20;;;;;;;6.50;3.10;;;36.50;81.00;;;;;;5062293;28;20469;-71
2022/07/29 08:09:26;;;;;;;6.93;3.10;;;38.70;78.60;;;;;;5070777;28;20040;-71
2022/07/29 08:12:30;;;;;;;9.00;3.65;;;39.40;76.50;;;;;;5083180;28;20046;-71
2022/07/29 08:15:35;;;;;;;8.82;2.90;;;39.80;75.60;;;;;;5071669;28;20056;-70
2022/07/29 08:18:41;;;;;;;6.78;3.40;;;40.40;75.40;;;;;;5079325;28;20047;-69
2022/07/29 08:21:45;;;;;;;6.72;3.25;;;41.00;74.20;;;;;;5084036;28;20386;-69
2022/07/29 08:24:55;;;;;;;3.38;2.60;;;42.30;72.70;;;;;;5052466;28;20048;-73
2022/07/29 08:27:59;;;;;;;3.53;2.72;;;43.30;69.60;;;;;;5061610;28;20048;-72
2022/07/29 08:31:04;;;;;;;6.40;2.80;;;42.50;68.80;;;;;;5077982;28;20042;-71
2022/07/29 08:34:07;;;;;;;3.53;2.65;;;42.90;69.10;;;;;;5084727;28;20079;-71
2022/07/29 08:37:12;;;;;;;5.65;2.75;;;42.30;69.10;;;;;;5069903;28;20044;-70
2022/07/29 08:40:17;;;;;;;4.18;2.80;;;41.60;68.20;;;;;;5081275;28;20040;-71
2022/07/29 08:43:21;;;;;;;6.70;3.10;;;41.10;69.30;;;;;;5068238;28;20043;-70
2022/07/29 08:46:25;;;;;;;3.80;2.60;;;40.00;70.40;;;;;;5073019;28;20048;-68
2022/07/29 08:49:29;;;;;;;5.10;2.67;;;42.00;69.70;;;;;;5082130;28;20043;-70
2022/07/29 08:52:36;;;;;;;4.32;2.75;;;43.60;67.50;;;;;;5080161;28;20382;-70
2022/07/29 08:55:43;;;;;;;7.05;2.80;;;44.80;66.00;;;;;;5082140;28;20064;-71
2022/07/29 08:58:48;;;;;;;5.45;2.92;;;45.30;65.20;;;;;;5055416;28;20036;-71
2022/07/29 09:01:53;;;;;;;5.63;2.78;;;45.90;64.70;;;;;;5071523;28;20068;-69
2022/07/29 09:04:59;;;;;;;6.05;2.58;;;46.70;63.20;;;;;;5071535;28;20482;-69
2022/07/29 09:08:04;;;;;;;7.13;3.05;;;46.50;61.70;;;;;;5072444;28;20118;-68
2022/07/29 09:11:10;;;;;;;6.50;2.80;;;43.70;64.20;;;;;;5074697;28;20048;-69
2022/07/29 09:14:14;;;;;;;7.22;2.80;;;45.10;63.60;;;;;;5070349;28;20047;-68
2022/07/29 09:17:38;;;;;;;9.73;3.83;;;43.30;64.20;;;;;;5070795;28;20039;-71
2022/07/29 09:24:15;;;;;;;4.20;2.72;;;42.80;64.50;;;;;;5079343;28;20052;-70
2022/07/29 09:27:26;;;;;;;6.20;2.92;;;42.80;63.40;;;;;;5070990;28;20039;-70
2022/07/29 09:30:30;;;;;;;6.68;2.67;;;44.90;62.70;;;;;;5066016;28;20375;-71
2022/07/29 09:33:35;;;;;;;5.80;2.72;;;44.10;63.50;;;;;;5070406;28;20063;-71
2022/07/29 09:36:41;;;;;;;5.40;2.75;;;45.50;62.00;;;;;;5071185;28;20047;-71
2022/07/29 09:39:46;;;;;;;5.00;2.83;;;45.80;62.00;;;;;;5042654;28;20024;-70
2022/07/29 09:42:51;;;;;;;8.00;2.90;;;44.60;61.00;;;;;;5079941;28;20034;-71
2022/07/29 09:45:56;;;;;;;5.20;3.05;;;45.10;61.00;;;;;;5069774;28;20055;-71
2022/07/29 09:49:10;;;;;;;5.05;2.45;;;44.90;60.40;;;;;;5071626;28;20039;-71
2022/07/29 09:52:14;;;;;;;4.20;2.55;;;44.10;63.00;;;;;;5071191;28;20055;-71
2022/07/29 09:55:19;;;;;;;7.63;2.58;;;46.20;60.60;;;;;;5050999;28;20043;-70
2022/07/29 09:58:25;;;;;;;6.35;2.60;;;47.70;57.70;;;;;;5075923;28;20051;-70
2022/07/29 10:01:29;;;;;;;4.70;2.88;;;46.60;58.20;;;;;;5067364;28;20044;-70
2022/07/29 10:04:39;;;;;;;5.65;2.85;;;45.70;59.80;;;;;;5038166;28;20395;-70
2022/07/29 10:07:47;;;;;;;5.15;2.95;;;44.80;59.70;;;;;;5050322;28;20060;-71
2022/07/29 10:11:15;;;;;;;5.88;2.70;;;45.90;59.30;;;;;;5042764;28;20028;-70
2022/07/29 10:14:19;;;;;;;8.43;3.28;;;45.80;59.60;;;;;;5066862;28;20051;-70
2022/07/29 10:17:23;;;;;;;8.95;3.72;;;41.60;61.30;;;;;;5090839;28;20039;-70
2022/07/29 10:20:28;;;;;;;4.72;3.13;;;39.00;65.00;;;;;;5071526;28;20063;-70
2022/07/29 10:23:33;;;;;;;6.70;3.10;;;41.60;64.10;;;;;;5070008;28;20502;-71
2022/07/29 10:26:40;;;;;;;4.07;2.78;;;45.20;61.10;;;;;;5085507;28;20477;-70
2022/07/29 10:29:44;;;;;;;5.03;2.85;;;45.90;60.50;;;;;;5067911;28;20040;-71
2022/07/29 10:33:07;;;;;;;6.53;2.60;;;45.30;59.70;;;;;;5070646;28;20055;-71
2022/07/29 10:36:17;;;;;;;8.45;2.90;;;43.90;57.50;;;;;;5073656;28;20602;-71
2022/07/29 10:39:41;;;;;;;5.47;2.78;;;43.30;59.70;;;;;;5080875;28;20046;-71
2022/07/29 10:42:44;;;;;;;9.13;2.90;;;45.20;58.80;;;;;;5070936;28;20035;-71
2022/07/29 10:45:54;;;;;;;9.45;2.67;;;43.70;58.50;;;;;;5051076;28;20048;-71
2022/07/29 10:49:05;;;;;;;5.13;2.42;;;45.70;59.10;;;;;;5069900;28;20506;-72
2022/07/29 10:52:10;;;;;;;6.80;2.58;;;48.40;57.60;;;;;;5078394;28;20036;-73
2022/07/29 10:55:39;;;;;;;6.40;2.33;;;50.10;56.20;;;;;;5091846;28;20047;-72
2022/07/29 10:58:43;;;;;;;4.28;2.15;;;49.80;56.00;;;;;;5084362;28;20388;-71
2022/07/29 11:01:49;;;;;;;5.53;2.40;;;49.90;55.40;;;;;;5057414;28;20497;-72
2022/07/29 11:04:59;;;;;;;4.97;2.47;;;51.00;54.70;;;;;;5073392;28;20087;-72
2022/07/29 11:08:18;;;;;;;4.03;2.20;;;51.00;53.60;;;;;;5089431;28;20066;-72
2022/07/29 11:11:28;;;;;;;6.85;2.20;;;51.80;53.50;;;;;;5080576;28;20051;-72
2022/07/29 11:14:57;;;;;;;6.57;2.22;;;46.80;54.40;;;;;;5080595;28;20056;-69
2022/07/29 11:18:01;;;;;;;;;;;46.30;55.00;;;;;;5073728;28;20379;-71
2022/07/29 11:21:38;;;;;;;4.75;2.60;;;44.60;56.30;;;;;;5073622;28;20271;-72
2022/07/29 11:24:42;;;;;;;4.93;2.60;;;45.70;55.90;;;;;;5048257;28;20055;-71
2022/07/29 11:27:47;;;;;;;6.40;3.00;;;45.40;56.90;;;;;;5073414;28;20043;-71
2022/07/29 11:30:52;;;;;;;7.97;3.10;;;43.90;57.70;;;;;;5074047;28;20048;-71
2022/07/29 11:33:56;;;;;;;3.88;2.85;;;45.30;57.00;;;;;;5072496;28;20051;-71
2022/07/29 11:37:07;;;;;;;7.03;2.60;;;46.00;56.40;;;;;;5073091;28;20055;-71
2022/07/29 11:40:15;;;;;;;4.22;2.45;;;43.60;58.10;;;;;;5091680;28;20382;-71
2022/07/29 11:43:52;;;;;;;7.97;3.15;;;42.60;59.00;;;;;;5061197;28;20062;-71
2022/07/29 11:46:56;;;;;;;6.47;2.35;;;42.50;60.00;;;;;;5078443;28;20048;-71
2022/07/29 11:50:06;;;;;;;5.57;2.67;;;45.10;58.50;;;;;;5072458;28;20047;-72
2022/07/29 11:53:12;;;;;;;8.18;2.55;;;46.70;56.40;;;;;;5081046;28;20051;-72
2022/07/29 11:56:21;;;;;;;5.95;2.97;;;46.90;55.30;;;;;;5073678;28;20585;-71
2022/07/29 11:59:25;;;;;;;5.28;2.60;;;44.10;56.60;;;;;;5072541;28;20048;-71
2022/07/29 12:02:43;;;;;;;4.75;2.55;;;42.60;58.50;;;;;;5073974;28;20533;-71
2022/07/29 12:05:47;;;;;;;7.45;2.75;;;41.20;60.00;;;;;;5076606;28;20040;-71
2022/07/29 12:08:51;;;;;;;7.03;3.03;;;40.90;61.00;;;;;;5075558;28;20047;-71
2022/07/29 12:11:59;;;;;;;9.15;2.80;;;42.50;59.90;;;;;;5074464;28;20043;-71
2022/07/29 12:15:17;;;;;;;4.45;3.25;;;40.60;59.40;;;;;;5073602;28;20047;-71
2022/07/29 12:18:24;;;;;;;11.25;3.10;;;38.70;61.50;;;;;;5085501;28;20051;-71
2022/07/29 12:21:50;;;;;;;4.45;2.67;;;38.70;61.70;;;;;;5079918;28;20047;-71
2022/07/29 12:24:55;;;;;;;6.40;2.50;;;40.60;60.20;;;;;;5076943;28;20036;-71
2022/07/29 12:28:01;;;;;;;10.73;2.78;;;42.50;58.70;;;;;;5066816;28;20047;-71
2022/07/29 12:31:05;;;;;;;7.22;2.45;;;43.70;57.60;;;;;;5080696;28;20379;-71
2022/07/29 12:34:09;;;;;;;6.40;2.78;;;43.30;57.20;;;;;;5070062;28;20048;-71
2022/07/29 12:37:13;;;;;;;5.10;2.60;;;42.70;57.10;;;;;;5070697;28;20043;-71
2022/07/29 12:40:18;;;;;;;5.18;2.67;;;42.20;56.90;;;;;;5071202;28;20036;-71
2022/07/29 12:43:27;;;;;;;4.95;2.33;;;41.60;57.90;;;;;;5062579;28;20380;-71
2022/07/29 12:46:31;;;;;;;7.97;2.70;;;42.40;57.00;;;;;;5069079;28;20052;-71
2022/07/29 12:49:36;;;;;;;6.15;2.53;;;43.80;55.80;;;;;;5063361;28;20052;-71
2022/07/29 12:52:40;;;;;;;4.47;2.08;;;44.30;54.80;;;;;;5052667;28;20056;-71
2022/07/29 12:55:51;;;;;;;8.85;2.90;;;41.30;56.90;;;;;;5064444;28;20387;-71
2022/07/29 12:58:54;;;;;;;6.05;2.47;;;40.40;57.40;;;;;;5058406;28;20040;-71
2022/07/29 13:02:03;;;;;;;7.70;2.38;;;39.50;58.50;;;;;;5067281;28;20418;-71
2022/07/29 13:05:08;;;;;;;4.50;2.70;;;39.70;58.60;;;;;;5066630;28;20043;-71
2022/07/29 13:08:18;;;;;;;6.20;2.15;;;40.30;58.70;;;;;;5069121;28;20044;-71
2022/07/29 13:11:35;;;;;;;6.70;2.38;;;41.30;57.90;;;;;;5067325;28;20051;-71
2022/07/29 13:14:43;;;;;;;6.85;2.78;;;40.90;57.20;;;;;;5067535;28;20056;-71
2022/07/29 13:17:47;;;;;;;8.95;2.58;;;40.10;58.10;;;;;;5066279;28;20035;-73
2022/07/29 13:20:51;;;;;;;5.10;2.10;;;40.30;58.70;;;;;;5067741;28;20036;-71
2022/07/29 13:23:56;;;;;;;7.85;2.53;;;40.30;59.20;;;;;;5066797;28;20572;-71
2022/07/29 13:27:00;;;;;;;5.85;2.60;;;40.70;59.20;;;;;;5067800;28;20047;-71
2022/07/29 13:30:08;;;;;;;7.40;2.65;;;40.80;59.30;;;;;;5070794;28;20047;-71
2022/07/29 13:33:11;;;;;;;5.60;2.85;;;39.60;59.40;;;;;;5068820;28;20059;-71
2022/07/29 13:36:15;;;;;;;8.23;2.63;;;39.40;60.00;;;;;;5060838;28;20055;-71
2022/07/29 13:39:20;;;;;;;5.03;2.28;;;40.10;60.00;;;;;;5068765;28;20045;-72
2022/07/29 13:42:26;;;;;;;6.15;2.65;;;40.00;59.30;;;;;;5074439;28;20060;-71
2022/07/29 13:45:30;;;;;;;7.22;2.55;;;39.30;60.70;;;;;;5069673;28;20043;-71
2022/07/29 13:48:34;;;;;;;6.88;2.53;;;39.10;60.80;;;;;;5039470;28;20040;-72
2022/07/29 13:51:38;;;;;;;8.20;2.50;;;40.00;60.50;;;;;;5058355;28;20048;-71
2022/07/29 13:54:43;;;;;;;8.23;2.47;;;40.20;60.20;;;;;;5065022;28;20493;-71
2022/07/29 13:57:48;;;;;;;6.10;2.70;;;39.20;60.70;;;;;;5061176;28;20527;-71
2022/07/29 14:00:52;;;;;;;7.80;3.10;;;39.40;60.90;;;;;;5061908;28;20056;-71
2022/07/29 14:03:56;;;;;;;9.88;3.13;;;39.70;60.60;;;;;;5057435;28;20056;-71
2022/07/29 14:07:00;;;;;;;7.15;2.70;;;39.70;60.70;;;;;;5063856;28;20039;-71
2022/07/29 14:10:05;;;;;;;5.78;2.35;;;39.70;60.70;;;;;;5068165;28;20035;-72
2022/07/29 14:13:09;;;;;;;8.82;2.50;;;39.30;60.60;;;;;;5067300;28;20028;-71
2022/07/29 14:16:13;;;;;;;10.05;2.67;;;38.00;63.10;;;;;;5058314;28;20047;-71
2022/07/29 14:19:17;;;;;;;8.10;2.63;;;37.80;64.10;;;;;;5062749;28;20040;-72
2022/07/29 14:22:22;;;;;;;5.93;2.67;;;37.90;63.80;;;;;;5059397;28;20035;-72
2022/07/29 14:25:26;;;;;;;6.38;2.55;;;37.80;64.10;;;;;;5062446;28;20044;-71
2022/07/29 14:28:31;;;;;;;9.18;2.40;;;38.20;64.70;;;;;;5061768;28;20047;-72
2022/07/29 14:31:40;;;;;;;8.15;2.65;;;38.60;64.50;;;;;;5058407;28;21055;-71
2022/07/29 14:34:44;;;;;;;12.23;2.83;;;38.90;64.40;;;;;;5066258;28;20044;-71
2022/07/29 14:37:49;;;;;;;7.93;2.65;;;38.80;64.30;;;;;;5064501;28;20067;-72
2022/07/29 14:40:54;;;;;;;8.50;3.05;;;38.70;64.00;;;;;;5061451;28;20482;-71
2022/07/29 14:44:00;;;;;;;9.65;2.78;;;38.70;65.00;;;;;;5052553;28;20039;-71
2022/07/29 14:47:04;;;;;;;8.40;2.35;;;38.60;65.30;;;;;;5049601;28;20040;-70
2022/07/29 14:50:08;;;;;;;6.35;2.78;;;38.40;65.50;;;;;;5065197;28;20044;-71
2022/07/29 14:53:13;;;;;;;14.05;2.75;;;38.10;65.50;;;;;;5069980;28;20047;-71
2022/07/29 14:56:17;;;;;;;12.50;2.42;;;38.20;66.20;;;;;;5069393;28;20091;-72
2022/07/29 14:59:21;;;;;;;11.80;2.55;;;38.60;65.70;;;;;;5069935;28;20051;-72
2022/07/29 15:02:25;;;;;;;14.23;2.60;;;37.60;65.70;;;;;;5070286;28;20055;-74
2022/07/29 15:05:31;;;;;;;16.25;2.90;;;37.90;65.80;;;;;;5069548;28;20047;-71
2022/07/29 15:08:34;;;;;;;10.18;2.58;;;37.90;66.10;;;;;;5070120;28;20047;-73
2022/07/29 15:11:38;;;;;;;8.38;2.45;;;37.40;66.30;;;;;;5056584;28;20039;-73
2022/07/29 15:14:42;;;;;;;4.28;2.20;;;37.60;66.40;;;;;;5069548;28;20055;-71
2022/07/29 15:17:47;;;;;;;13.60;2.80;;;37.70;66.10;;;;;;5067642;28;20052;-73
2022/07/29 15:20:51;;;;;;;5.18;2.30;;;37.90;65.50;;;;;;5071664;28;20051;-71
2022/07/29 15:23:55;;;;;;;6.95;2.50;;;37.20;66.50;;;;;;5089706;28;20043;-71
2022/07/29 15:26:59;;;;;;;7.63;2.33;;;36.90;66.40;;;;;;5089605;28;20063;-72
2022/07/29 15:30:04;;;;;;;13.13;3.30;;;36.90;66.40;;;;;;5077144;28;20051;-71
2022/07/29 15:33:09;;;;;;;21.52;3.85;;;37.00;66.60;;;;;;5089541;28;20391;-71
2022/07/29 15:36:13;;;;;;;5.63;2.15;;;36.60;67.00;;;;;;5093433;28;20051;-73
2022/07/29 15:39:17;;;;;;;8.23;2.65;;;36.60;67.00;;;;;;5093355;28;20047;-70
2022/07/29 15:42:21;;;;;;;6.65;2.63;;;36.60;67.00;;;;;;5092058;28;20043;-70
2022/07/29 15:45:25;;;;;;;10.82;3.50;;;36.80;66.90;;;;;;5093109;28;20414;-71
2022/07/29 15:48:29;;;;;;;8.68;2.30;;;36.70;66.60;;;;;;5093368;28;20047;-72
2022/07/29 15:51:33;;;;;;;7.45;2.75;;;36.40;66.70;;;;;;5093840;28;20047;-70
2022/07/29 15:54:40;;;;;;;4.45;2.40;;;36.30;67.20;;;;;;5092112;28;20051;-72
2022/07/29 15:57:43;;;;;;;6.32;2.70;;;35.90;67.80;;;;;;5093285;28;20063;-72
2022/07/29 16:00:48;;;;;;;7.30;2.47;;;35.80;67.80;;;;;;5079542;28;20051;-72
2022/07/29 16:03:52;;;;;;;7.40;3.28;;;35.60;68.10;;;;;;5092770;28;20039;-71
2022/07/29 16:06:57;;;;;;;6.50;2.83;;;35.30;68.40;;;;;;5093152;28;20038;-71
2022/07/29 16:10:01;;;;;;;5.55;2.38;;;35.10;68.70;;;;;;5093554;28;20051;-71
2022/07/29 16:13:05;;;;;;;6.00;2.72;;;34.90;68.60;;;;;;5093443;28;20390;-72
2022/07/29 16:16:09;;;;;;;4.68;2.45;;;34.80;68.90;;;;;;5093070;28;20041;-71
2022/07/29 16:19:14;;;;;;;4.70;2.60;;;34.90;69.40;;;;;;5093157;28;20043;-71
2022/07/29 16:22:18;;;;;;;10.10;2.70;;;34.90;69.00;;;;;;5093516;28;20047;-71